createdAt,value
2018-12-09T00:01:16.161Z,98509.27
2018-12-09T00:03:45.474Z,98505.07
2018-12-09T00:06:14.826Z,98503.09
2018-12-09T00:08:46.035Z,98498.87
2018-12-09T00:11:14.415Z,98485.50
2018-12-09T00:13:42.814Z,98486.16
2018-12-09T00:16:10.146Z,98473.12
2018-12-09T00:18:37.450Z,98475.73
2018-12-09T00:21:04.751Z,98474.79
2018-12-09T00:23:32.154Z,98464.36
2018-12-09T00:25:59.446Z,98456.84
2018-12-09T00:28:26.730Z,98449.20
2018-12-09T00:30:54.158Z,98451.78
2018-12-09T00:33:21.467Z,98445.77
2018-12-09T00:35:49.808Z,98446.93
2018-12-09T00:38:17.088Z,98450.16
2018-12-09T00:40:44.386Z,98451.00
2018-12-09T00:43:11.682Z,98443.50
2018-12-09T00:45:39.109Z,98439.75
2018-12-09T00:48:06.420Z,98443.50
2018-12-09T00:50:33.718Z,98445.78
2018-12-09T00:53:01.319Z,98436.64
2018-12-09T00:55:28.635Z,98437.95
2018-12-09T00:57:55.957Z,98431.64
2018-12-09T01:00:23.283Z,98429.53
2018-12-09T01:02:50.594Z,98425.77
2018-12-09T01:05:17.939Z,98421.23
2018-12-09T01:07:45.387Z,98416.15
2018-12-09T01:10:12.735Z,98419.61
2018-12-09T01:12:40.064Z,98415.23
2018-12-09T01:15:07.515Z,98417.48
2018-12-09T01:17:34.827Z,98409.34
2018-12-09T01:20:02.191Z,98405.75
2018-12-09T01:22:29.619Z,98408.81
2018-12-09T01:24:56.982Z,98418.63
2018-12-09T01:27:24.282Z,98422.34
2018-12-09T01:29:51.582Z,98426.92
2018-12-09T01:32:19.746Z,98437.67
2018-12-09T01:34:47.183Z,98427.54
2018-12-09T01:37:14.635Z,98440.59
2018-12-09T01:39:41.946Z,98439.63
2018-12-09T01:42:09.287Z,98430.48
2018-12-09T01:44:36.610Z,98423.50
2018-12-09T01:47:03.958Z,98425.95
2018-12-09T01:49:31.603Z,98425.77
2018-12-09T01:51:59.007Z,98434.41
2018-12-09T01:54:26.314Z,98437.96
2018-12-09T01:56:53.627Z,98431.81
2018-12-09T01:59:20.971Z,98431.46
2018-12-09T02:01:48.280Z,98428.22
2018-12-09T02:04:16.307Z,98432.93
2018-12-09T02:06:43.934Z,98437.30
2018-12-09T02:09:11.411Z,98430.95
2018-12-09T02:11:38.971Z,98431.13
2018-12-09T02:14:06.616Z,98438.78
2018-12-09T02:16:34.461Z,98432.77
2018-12-09T02:19:16.086Z,98439.77
2018-12-09T02:21:43.574Z,98436.66
2018-12-09T02:24:11.254Z,98442.55
2018-12-09T02:26:38.590Z,98435.36
2018-12-09T02:29:05.896Z,98443.20
2018-12-09T02:31:33.190Z,98438.44
2018-12-09T02:34:00.527Z,98442.50
2018-12-09T02:36:27.834Z,98438.13
2018-12-09T02:38:55.134Z,98426.03
2018-12-09T02:41:22.438Z,98436.95
2018-12-09T02:43:49.751Z,98434.69
2018-12-09T02:46:17.070Z,98435.00
2018-12-09T02:48:44.487Z,98430.47
2018-12-09T02:51:11.796Z,98439.88
2018-12-09T02:53:39.215Z,98436.30
2018-12-09T02:56:06.580Z,98428.02
2018-12-09T02:58:33.882Z,98442.55
2018-12-09T03:01:01.723Z,98432.12
2018-12-09T03:03:30.175Z,98433.41
2018-12-09T03:05:57.600Z,98437.80
2018-12-09T03:08:25.196Z,98433.67
2018-12-09T03:10:52.536Z,98428.61
2018-12-09T03:13:20.252Z,98435.69
2018-12-09T03:15:47.580Z,98439.57
2018-12-09T03:18:15.046Z,98430.77
2018-12-09T03:20:42.347Z,98434.72
2018-12-09T03:23:09.762Z,98439.77
2018-12-09T03:25:37.410Z,98431.73
2018-12-09T03:28:04.730Z,98443.02
2018-12-09T03:30:32.158Z,98440.88
2018-12-09T03:32:59.588Z,98448.86
2018-12-09T03:35:26.891Z,98442.19
2018-12-09T03:37:54.602Z,98439.42
2018-12-09T03:40:21.927Z,98441.20
2018-12-09T03:42:49.240Z,98448.03
2018-12-09T03:45:16.551Z,98455.21
2018-12-09T03:47:43.972Z,98452.95
2018-12-09T03:50:11.582Z,98462.70
2018-12-09T03:52:38.887Z,98451.97
2018-12-09T03:55:06.325Z,98460.46
2018-12-09T03:57:33.933Z,98463.36
2018-12-09T04:00:01.373Z,98466.63
2018-12-09T04:02:29.999Z,98474.11
2018-12-09T04:04:57.311Z,98476.42
2018-12-09T04:07:24.619Z,98472.18
2018-12-09T04:09:54.070Z,98478.36
2018-12-09T04:12:21.362Z,98467.30
2018-12-09T04:14:49.074Z,98481.94
2018-12-09T04:17:16.551Z,98481.62
2018-12-09T04:19:43.859Z,98484.05
2018-12-09T04:22:11.127Z,98484.87
2018-12-09T04:24:38.418Z,98492.05
2018-12-09T04:27:06.021Z,98495.28
2018-12-09T04:29:33.324Z,98492.52
2018-12-09T04:32:00.706Z,98501.78
2018-12-09T04:34:28.024Z,98494.97
2018-12-09T04:36:55.326Z,98495.62
2018-12-09T04:39:24.190Z,98496.91
2018-12-09T04:41:51.507Z,98509.95
2018-12-09T04:44:18.843Z,98502.13
2018-12-09T04:46:46.156Z,98506.68
2018-12-09T04:49:13.491Z,98511.59
2018-12-09T04:51:52.427Z,98508.48
2018-12-09T04:54:19.967Z,98511.26
2018-12-09T04:56:47.543Z,98511.26
2018-12-09T04:59:20.312Z,98507.02
2018-12-09T05:01:47.752Z,98512.22
2018-12-09T05:04:16.229Z,98516.13
2018-12-09T05:06:43.555Z,98521.19
2018-12-09T05:09:10.878Z,98508.64
2018-12-09T05:11:38.316Z,98517.11
2018-12-09T05:14:05.708Z,98518.41
2018-12-09T05:16:33.043Z,98518.73
2018-12-09T05:19:00.352Z,98523.13
2018-12-09T05:21:27.762Z,98523.63
2018-12-09T05:23:55.148Z,98516.78
2018-12-09T05:26:22.989Z,98522.98
2018-12-09T05:28:50.269Z,98523.80
2018-12-09T05:31:17.562Z,98520.05
2018-12-09T05:33:44.839Z,98525.11
2018-12-09T05:36:12.169Z,98527.22
2018-12-09T05:38:39.845Z,98543.50
2018-12-09T05:41:07.159Z,98549.50
2018-12-09T05:43:34.546Z,98554.09
2018-12-09T05:46:01.838Z,98551.97
2018-12-09T05:48:29.125Z,98552.61
2018-12-09T05:50:56.409Z,98555.38
2018-12-09T05:53:23.678Z,98549.17
2018-12-09T05:55:50.962Z,98542.19
2018-12-09T05:58:20.290Z,98547.72
2018-12-09T06:00:47.582Z,98550.31
2018-12-09T06:03:14.857Z,98553.91
2018-12-09T06:05:42.162Z,98556.83
2018-12-09T06:08:09.466Z,98555.22
2018-12-09T06:10:36.766Z,98560.09
2018-12-09T06:13:05.901Z,98557.81
2018-12-09T06:15:33.386Z,98560.75
2018-12-09T06:18:00.694Z,98566.27
2018-12-09T06:20:28.002Z,98564.33
2018-12-09T06:22:55.294Z,98574.11
2018-12-09T06:25:22.611Z,98565.95
2018-12-09T06:27:49.914Z,98570.81
2018-12-09T06:30:17.274Z,98580.12
2018-12-09T06:32:44.570Z,98588.76
2018-12-09T06:35:12.006Z,98590.39
2018-12-09T06:37:39.306Z,98584.51
2018-12-09T06:40:07.014Z,98588.75
2018-12-09T06:42:34.726Z,98593.48
2018-12-09T06:45:02.069Z,98592.36
2018-12-09T06:47:29.587Z,98599.00
2018-12-09T06:49:56.879Z,98605.69
2018-12-09T06:52:24.194Z,98605.21
2018-12-09T06:54:51.491Z,98610.57
2018-12-09T06:57:18.918Z,98618.39
2018-12-09T06:59:46.342Z,98627.34
2018-12-09T07:02:13.647Z,98636.63
2018-12-09T07:04:40.978Z,98634.83
2018-12-09T07:07:08.290Z,98636.94
2018-12-09T07:09:36.007Z,98632.89
2018-12-09T07:12:03.346Z,98639.38
2018-12-09T07:14:30.621Z,98638.74
2018-12-09T07:16:58.061Z,98642.17
2018-12-09T07:19:25.355Z,98651.91
2018-12-09T07:21:52.682Z,98659.40
2018-12-09T07:24:19.982Z,98651.92
2018-12-09T07:27:04.362Z,98655.85
2018-12-09T07:29:31.780Z,98663.70
2018-12-09T07:31:59.089Z,98663.65
2018-12-09T07:34:26.374Z,98673.63
2018-12-09T07:36:53.681Z,98677.18
2018-12-09T07:39:20.957Z,98676.38
2018-12-09T07:41:48.271Z,98673.75
2018-12-09T07:44:15.594Z,98686.12
2018-12-09T07:46:43.354Z,98692.28
2018-12-09T07:49:10.689Z,98706.66
2018-12-09T07:51:38.097Z,98704.07
2018-12-09T07:54:05.538Z,98709.30
2018-12-09T07:56:32.965Z,98714.49
2018-12-09T07:59:00.267Z,98708.34
2018-12-09T08:01:27.578Z,98713.02
2018-12-09T08:03:54.908Z,98714.37
2018-12-09T08:06:22.234Z,98723.66
2018-12-09T08:08:49.545Z,98733.08
2018-12-09T08:11:16.839Z,98729.95
2018-12-09T08:13:44.160Z,98725.89
2018-12-09T08:16:11.486Z,98728.52
2018-12-09T08:18:38.798Z,98734.38
2018-12-09T08:21:06.103Z,98724.56
2018-12-09T08:23:33.428Z,98744.16
2018-12-09T08:26:00.719Z,98743.51
2018-12-09T08:28:28.040Z,98748.85
2018-12-09T08:30:55.338Z,98754.88
2018-12-09T08:33:22.775Z,98763.19
2018-12-09T08:35:50.070Z,98765.61
2018-12-09T08:38:17.378Z,98764.54
2018-12-09T08:40:44.674Z,98766.33
2018-12-09T08:43:12.411Z,98782.32
2018-12-09T08:45:41.022Z,98786.23
2018-12-09T08:48:08.520Z,98780.88
2018-12-09T08:50:35.838Z,98784.67
2018-12-09T08:53:03.170Z,98791.47
2018-12-09T08:55:30.480Z,98796.37
2018-12-09T08:57:57.850Z,98809.96
2018-12-09T09:00:26.175Z,98805.64
2018-12-09T09:02:53.499Z,98803.36
2018-12-09T09:05:20.887Z,98816.10
2018-12-09T09:07:48.191Z,98809.69
2018-12-09T09:10:15.503Z,98816.88
2018-12-09T09:12:43.211Z,98819.19
2018-12-09T09:15:10.515Z,98833.50
2018-12-09T09:17:37.940Z,98802.50
2018-12-09T09:20:05.582Z,98833.18
2018-12-09T09:22:32.849Z,98839.80
2018-12-09T09:25:00.126Z,98830.84
2018-12-09T09:27:27.526Z,98837.45
2018-12-09T09:29:54.804Z,98834.52
2018-12-09T09:32:23.099Z,98849.74
2018-12-09T09:34:50.559Z,98847.75
2018-12-09T09:37:17.879Z,98838.92
2018-12-09T09:39:45.187Z,98845.27
2018-12-09T09:42:12.534Z,98847.03
2018-12-09T09:44:41.085Z,98860.91
2018-12-09T09:47:08.571Z,98862.67
2018-12-09T09:49:35.891Z,98862.05
2018-12-09T09:52:03.263Z,98863.02
2018-12-09T09:54:30.627Z,98866.77
2018-12-09T09:56:57.963Z,98866.03
2018-12-09T09:59:25.299Z,98869.98
2018-12-09T10:01:53.167Z,98867.40
2018-12-09T10:04:21.579Z,98872.19
2018-12-09T10:06:48.943Z,98872.26
2018-12-09T10:09:16.331Z,98870.06
2018-12-09T10:11:43.639Z,98877.69
2018-12-09T10:14:10.983Z,98889.97
2018-12-09T10:16:38.292Z,98886.39
2018-12-09T10:19:06.655Z,98882.88
2018-12-09T10:21:33.962Z,98878.89
2018-12-09T10:24:01.310Z,98880.84
2018-12-09T10:26:36.245Z,98874.67
2018-12-09T10:28:57.967Z,98885.81
2018-12-09T10:31:25.263Z,98886.45
2018-12-09T10:33:52.599Z,98886.06
2018-12-09T10:36:19.914Z,98883.90
2018-12-09T10:38:47.242Z,98886.81
2018-12-09T10:41:14.550Z,98893.03
2018-12-09T10:43:41.875Z,98903.66
2018-12-09T10:46:09.222Z,98891.42
2018-12-09T10:48:37.752Z,98892.88
2018-12-09T10:51:06.494Z,98891.41
2018-12-09T10:53:33.839Z,98893.39
2018-12-09T10:56:01.250Z,98887.52
2018-12-09T10:58:28.566Z,98902.36
2018-12-09T11:02:01.304Z,98897.64
2018-12-09T11:04:30.127Z,98904.64
2018-12-09T11:06:57.434Z,98911.68
2018-12-09T11:09:24.755Z,98903.51
2018-12-09T11:11:52.058Z,98916.57
2018-12-09T11:14:19.375Z,98928.31
2018-12-09T11:16:46.682Z,98911.34
2018-12-09T11:19:13.988Z,98918.17
2018-12-09T11:21:41.294Z,98910.51
2018-12-09T11:24:08.647Z,98910.67
2018-12-09T11:26:35.971Z,98912.00
2018-12-09T11:29:03.275Z,98922.09
2018-12-09T11:31:30.594Z,98926.52
2018-12-09T11:33:58.242Z,98925.98
2018-12-09T11:36:25.671Z,98939.27
2018-12-09T11:38:53.022Z,98950.83
2018-12-09T11:41:20.326Z,98933.22
2018-12-09T11:43:47.661Z,98929.05
2018-12-09T11:46:15.774Z,98927.16
2018-12-09T11:48:43.208Z,98946.47
2018-12-09T11:51:10.507Z,98935.84
2018-12-09T11:53:37.963Z,98945.02
2018-12-09T11:56:06.127Z,98945.94
2018-12-09T11:58:33.535Z,98944.38
2018-12-09T12:01:01.845Z,98942.27
2018-12-09T12:03:31.123Z,98952.70
2018-12-09T12:05:58.406Z,98959.50
2018-12-09T12:08:25.760Z,98957.10
2018-12-09T12:10:53.066Z,98964.98
2018-12-09T12:13:20.375Z,98956.67
2018-12-09T12:15:47.695Z,98957.96
2018-12-09T12:18:15.015Z,98961.38
2018-12-09T12:20:42.643Z,98966.14
2018-12-09T12:23:10.187Z,98962.36
2018-12-09T12:25:37.506Z,98969.73
2018-12-09T12:28:04.876Z,98974.63
2018-12-09T12:30:32.487Z,98972.95
2018-12-09T12:32:59.786Z,98970.06
2018-12-09T12:35:27.097Z,98975.92
2018-12-09T12:37:55.339Z,98973.52
2018-12-09T12:40:22.726Z,98966.52
2018-12-09T12:42:50.166Z,98969.41
2018-12-09T12:45:17.539Z,99001.67
2018-12-09T12:47:45.095Z,98969.45
2018-12-09T12:50:13.656Z,98978.29
2018-12-09T12:52:41.395Z,98990.68
2018-12-09T12:55:08.695Z,98987.75
2018-12-09T12:57:36.071Z,98988.72
2018-12-09T13:00:06.710Z,98998.87
2018-12-09T13:02:36.034Z,98995.69
2018-12-09T13:05:03.380Z,99006.61
2018-12-09T13:07:31.457Z,99004.89
2018-12-09T13:09:58.918Z,99012.14
2018-12-09T13:12:26.250Z,99017.25
2018-12-09T13:14:53.550Z,99020.17
2018-12-09T13:17:21.198Z,99035.73
2018-12-09T13:19:48.518Z,99028.12
2018-12-09T13:22:15.859Z,99040.29
2018-12-09T13:24:43.167Z,99057.13
2018-12-09T13:27:11.175Z,99056.86
2018-12-09T13:29:38.619Z,99052.90
2018-12-09T13:32:06.507Z,99057.67
2018-12-09T13:34:33.950Z,99065.93
2018-12-09T13:37:01.314Z,99060.00
2018-12-09T13:39:28.631Z,99064.80
2018-12-09T13:41:55.987Z,99079.52
2018-12-09T13:44:24.514Z,99079.73
2018-12-09T13:46:52.903Z,99080.11
2018-12-09T13:49:20.204Z,99083.12
2018-12-09T13:51:48.781Z,99093.13
2018-12-09T13:54:16.086Z,99097.01
2018-12-09T13:59:33.716Z,99116.00
2018-12-09T14:02:00.916Z,99122.52
2018-12-09T14:04:29.056Z,99126.44
2018-12-09T14:06:56.300Z,99119.91
2018-12-09T14:09:23.758Z,99127.48
2018-12-09T14:11:50.965Z,99122.13
2018-12-09T14:14:18.493Z,99132.94
2018-12-09T14:16:45.829Z,99146.84
2018-12-09T14:19:13.040Z,99151.92
2018-12-09T14:21:40.556Z,99171.90
2018-12-09T14:24:07.776Z,99173.28
2018-12-09T14:26:35.007Z,99168.16
2018-12-09T14:29:02.276Z,99171.51
2018-12-09T14:31:31.371Z,99164.08
2018-12-09T14:33:58.682Z,99184.63
2018-12-09T14:36:27.097Z,99184.08
2018-12-09T14:38:54.407Z,99185.52
2018-12-09T14:41:21.847Z,99192.54
2018-12-09T14:43:49.139Z,99193.66
2018-12-09T14:46:16.430Z,99210.99
2018-12-09T14:48:43.922Z,99216.20
2018-12-09T14:51:11.583Z,99224.48
2018-12-09T14:53:38.834Z,99223.48
2018-12-09T14:56:06.097Z,99231.72
2018-12-09T14:58:33.366Z,99228.09
2018-12-09T15:01:00.743Z,99245.05
2018-12-09T15:09:21.952Z,99253.45
2018-12-09T15:11:49.376Z,99267.87
2018-12-09T15:14:17.347Z,99268.14
2018-12-09T15:16:44.845Z,99271.53
2018-12-09T15:19:13.188Z,99261.10
2018-12-09T15:21:57.140Z,99284.17
2018-12-09T15:24:24.529Z,99291.45
2018-12-09T15:26:51.766Z,99296.15
2018-12-09T15:29:23.086Z,99297.36
2018-12-09T15:31:50.552Z,99305.03
2018-12-09T15:34:17.794Z,99304.72
2018-12-09T15:36:45.247Z,99303.63
2018-12-09T15:39:12.616Z,99310.89
2018-12-09T15:41:39.967Z,99305.93
2018-12-09T15:44:07.217Z,99330.89
2018-12-09T15:46:34.577Z,99328.36
2018-12-09T15:49:01.802Z,99331.02
2018-12-09T15:51:29.072Z,99342.45
2018-12-09T15:53:57.913Z,99345.30
2018-12-09T15:56:25.294Z,99350.84
2018-12-09T15:58:52.556Z,99357.91
2018-12-09T16:01:19.828Z,99345.97
2018-12-09T16:04:04.004Z,99372.19
2018-12-09T16:06:31.840Z,99362.87
2018-12-09T16:08:59.089Z,99363.92
2018-12-09T16:11:26.344Z,99387.26
2018-12-09T16:13:53.828Z,99386.11
2018-12-09T16:16:21.088Z,99395.76
2018-12-09T16:18:48.344Z,99393.59
2018-12-09T16:21:15.580Z,99391.44
2018-12-09T16:23:42.808Z,99407.89
2018-12-09T16:26:10.060Z,99400.78
2018-12-09T16:28:37.432Z,99407.48
2018-12-09T16:31:04.672Z,99421.66
2018-12-09T16:33:31.924Z,99418.69
2018-12-09T16:35:59.153Z,99437.08
2018-12-09T16:38:27.080Z,99433.84
2018-12-09T16:40:54.321Z,99445.13
2018-12-09T16:43:21.549Z,99446.50
2018-12-09T16:45:48.777Z,99438.94
2018-12-09T16:48:16.045Z,99466.98
2018-12-09T16:50:43.280Z,99468.95
2018-12-09T16:53:10.513Z,99471.12
2018-12-09T16:55:37.764Z,99462.03
2018-12-09T16:58:05.013Z,99479.59
2018-12-09T17:00:32.264Z,99487.16
2018-12-09T17:02:59.933Z,99493.13
2018-12-09T17:05:27.156Z,99478.78
2018-12-09T17:07:54.370Z,99510.20
2018-12-09T17:10:21.624Z,99511.71
2018-12-09T17:12:48.866Z,99508.33
2018-12-09T17:15:16.192Z,99537.14
2018-12-09T17:17:44.591Z,99537.48
2018-12-09T17:20:12.017Z,99558.34
2018-12-09T17:22:39.268Z,99550.84
2018-12-09T17:25:07.992Z,99558.19
2018-12-09T17:27:35.260Z,99560.80
2018-12-09T17:30:02.616Z,99567.94
2018-12-09T17:32:30.287Z,99575.89
2018-12-09T17:34:58.916Z,99592.83
2018-12-09T17:37:26.141Z,99586.70
2018-12-09T17:39:53.521Z,99598.72
2018-12-09T17:42:22.046Z,99615.37
2018-12-09T17:44:49.277Z,99621.01
2018-12-09T17:47:17.668Z,99625.79
2018-12-09T17:49:45.016Z,99635.73
2018-12-09T17:52:12.253Z,99634.72
2018-12-09T17:54:39.664Z,99647.64
2018-12-09T17:57:07.423Z,99648.08
2018-12-09T17:59:34.655Z,99656.91
2018-12-09T18:02:01.928Z,99673.73
2018-12-09T18:04:29.280Z,99666.41
2018-12-09T18:06:56.565Z,99673.33
2018-12-09T18:09:23.829Z,99682.95
2018-12-09T18:11:51.057Z,99684.00
2018-12-09T18:14:18.291Z,99701.98
2018-12-09T18:16:45.607Z,99706.15
2018-12-09T18:19:12.840Z,99707.02
2018-12-09T18:21:40.196Z,99732.72
2018-12-09T18:24:07.605Z,99719.43
2018-12-09T18:27:59.508Z,99726.25
2018-12-09T18:30:27.100Z,99739.13
2018-12-09T18:32:54.344Z,99758.73
2018-12-09T18:35:21.578Z,99760.10
2018-12-09T18:37:49.686Z,99775.42
2018-12-09T18:40:16.904Z,99776.89
2018-12-09T18:42:44.309Z,99784.47
2018-12-09T18:45:11.709Z,99794.17
2018-12-09T18:47:40.125Z,99798.20
2018-12-09T18:50:07.468Z,99802.73
2018-12-09T18:52:34.736Z,99814.84
2018-12-09T18:55:02.086Z,99820.80
2018-12-09T18:57:29.666Z,99832.16
2018-12-09T18:59:57.362Z,99841.88
2018-12-09T19:02:24.856Z,99837.95
2018-12-09T19:04:52.484Z,99849.06
2018-12-09T19:07:21.244Z,99849.08
2018-12-09T19:09:48.749Z,99844.01
2018-12-09T19:12:16.212Z,99866.83
2018-12-09T19:14:43.930Z,99873.58
2018-12-09T19:17:11.407Z,99876.27
2018-12-09T19:19:38.780Z,99880.98
2018-12-09T19:22:06.081Z,99888.25
2018-12-09T19:24:33.349Z,99901.55
2018-12-09T19:27:00.708Z,99898.48
2018-12-09T19:29:28.081Z,99894.11
2018-12-09T19:31:55.643Z,99904.03
2018-12-09T19:34:23.992Z,99909.16
2018-12-09T19:36:51.485Z,99915.67
2018-12-09T19:39:18.861Z,99936.75
2018-12-09T19:41:48.169Z,99936.28
2018-12-09T19:44:15.552Z,99947.99
2018-12-09T19:46:42.912Z,99946.44
2018-12-09T19:49:10.297Z,99956.84
2018-12-09T19:51:37.552Z,99926.83
2018-12-09T19:54:04.789Z,99963.60
2018-12-09T19:56:32.175Z,99968.20
2018-12-09T19:58:59.403Z,99984.43
2018-12-09T20:01:26.652Z,99988.11
2018-12-09T20:03:54.193Z,99997.19
2018-12-09T20:06:21.444Z,100005.95
2018-12-09T20:08:48.817Z,100005.47
2018-12-09T20:11:16.096Z,100018.83
2018-12-09T20:13:43.502Z,100019.66
2018-12-09T20:16:11.291Z,100011.02
2018-12-09T20:18:41.196Z,100024.64
2018-12-09T20:21:10.604Z,100024.89
2018-12-09T20:23:37.865Z,100038.83
2018-12-09T20:26:05.137Z,100038.13
2018-12-09T20:28:32.380Z,100040.86
2018-12-09T20:30:59.741Z,100046.77
2018-12-09T20:33:29.169Z,100050.06
2018-12-09T20:35:57.499Z,100055.50
2018-12-09T20:38:24.754Z,100062.48
2018-12-09T20:40:52.013Z,100066.25
2018-12-09T20:43:19.255Z,100068.16
2018-12-09T20:45:46.512Z,100077.02
2018-12-09T20:48:13.884Z,100083.14
2018-12-09T20:50:41.420Z,100085.78
2018-12-09T20:53:08.740Z,100088.70
2018-12-09T20:55:36.026Z,100091.17
2018-12-09T20:58:03.273Z,100091.17
2018-12-09T21:00:30.522Z,100102.07
2018-12-09T21:02:58.341Z,100108.97
2018-12-09T21:05:26.077Z,100113.22
2018-12-09T21:07:53.300Z,100123.06
2018-12-09T21:10:20.776Z,100122.80
2018-12-09T21:12:48.014Z,100124.50
2018-12-09T21:15:15.234Z,100127.56
2018-12-09T21:17:42.528Z,100135.97
2018-12-09T21:20:09.972Z,100133.94
2018-12-09T21:22:37.240Z,100147.44
2018-12-09T21:25:04.648Z,100139.45
2018-12-09T21:27:32.999Z,100146.44
2018-12-09T21:30:00.508Z,100154.26
2018-12-09T21:32:27.797Z,100158.52
2018-12-09T21:34:55.923Z,100167.52
2018-12-09T21:37:23.176Z,100165.62
2018-12-09T21:39:50.565Z,100176.87
2018-12-09T21:42:17.915Z,100178.50
2018-12-09T21:44:45.164Z,100182.05
2018-12-09T21:47:12.422Z,100188.30
2018-12-09T21:49:40.024Z,100191.73
2018-12-09T21:52:07.621Z,100197.29
2018-12-09T21:54:35.012Z,100203.42
2018-12-09T21:57:02.253Z,100213.14
2018-12-09T21:59:30.708Z,100210.78
2018-12-09T22:01:58.020Z,100206.73
2018-12-09T22:05:50.248Z,100220.89
2018-12-09T22:08:17.529Z,100227.45
2018-12-09T22:10:44.760Z,100230.55
2018-12-09T22:13:12.169Z,100231.62
2018-12-09T22:15:39.553Z,100220.95
2018-12-09T22:18:06.949Z,100247.10
2018-12-09T22:20:34.509Z,100245.80
2018-12-09T22:23:01.777Z,100255.02
2018-12-09T22:25:29.497Z,100252.50
2018-12-09T22:27:57.825Z,100248.28
2018-12-09T22:30:26.233Z,100265.15
2018-12-09T22:32:53.640Z,100258.56
2018-12-09T22:35:20.924Z,100263.41
2018-12-09T22:37:48.392Z,100273.02
2018-12-09T22:40:15.620Z,100270.50
2018-12-09T22:42:42.852Z,100277.80
2018-12-09T22:45:10.754Z,100283.94
2018-12-09T22:47:37.995Z,100278.03
2018-12-09T22:50:05.473Z,100288.15
2018-12-09T22:52:33.716Z,100285.71
2018-12-09T22:55:00.964Z,100294.19
2018-12-09T22:57:28.213Z,100298.95
2018-12-09T22:59:55.482Z,100299.48
2018-12-09T23:02:28.489Z,100311.00
2018-12-09T23:04:56.029Z,100310.36
2018-12-09T23:07:29.137Z,100321.75
2018-12-09T23:09:56.495Z,100321.83
2018-12-09T23:12:23.741Z,100325.84
2018-12-09T23:14:50.998Z,100324.67
2018-12-09T23:17:18.396Z,100341.36
2018-12-09T23:19:45.748Z,100341.80
2018-12-09T23:22:30.048Z,100334.93
2018-12-09T23:24:57.324Z,100328.64
2018-12-09T23:27:24.588Z,100349.91
2018-12-09T23:29:52.020Z,100339.95
2018-12-09T23:32:19.376Z,100363.83
2018-12-09T23:34:46.616Z,100365.06
2018-12-09T23:37:13.994Z,100366.14
2018-12-09T23:39:41.292Z,100383.58
2018-12-09T23:42:08.541Z,100377.97
2018-12-09T23:44:35.800Z,100370.75
2018-12-09T23:47:03.060Z,100373.88
2018-12-09T23:49:30.294Z,100386.47
2018-12-09T23:51:58.425Z,100389.08
2018-12-09T23:54:25.929Z,100396.69
2018-12-09T23:56:53.276Z,100384.16
2018-12-09T23:59:20.541Z,100389.08
